^^
Meteo Knjazevac Station Historical Data
Daily Summary for June 18, 2021 Units:  Both    English   Metric
Daily Weekly Monthly Yearly Custom
  High: Low: Average:
Temperature: 55.4 °F /  13 °C 52.6 °F /  11.4 °C 54.3 °F /  12.4 °C
Dew Point: 54.9 °F /  12.7 °C 49.8 °F /  9.9 °C 52.5 °F /  11.4 °C
Humidity: 99% 88% 94%
Wind Speed: 7mph /  11.3km/h - 2.6mph /  4.2km/h
Wind Gust: 13mph /  20.9km/h - -
Wind- - WSW
Pressure: 29.90 in /  1012.4 hPa 29.87 in /  1011.4 hPa -
Precipitation: 0.00 in /  0 mm    
Historical Graphs
 
 
Tabular Data for June 18, 2021
Time Temperature Dew Point Pressure Wind Wind Speed Wind Gust Humidity Rainfall Rate (Hourly) solar Conditions
00:00 55.4 °F /  13 °C 54.8 °F /  12.7 °C 29.87in /  1011.4hPa Calm   3mph /  4.8km/h 98% 0.00in /  0mm 0 W/m2
00:10 55.4 °F /  13 °C 54.8 °F /  12.7 °C 29.87in /  1011.4hPa ENE 1mph /  1.6km/h 2mph /  3.2km/h 98% 0.00in /  0mm 0 W/m2
00:20 55.2 °F /  12.9 °C 54.9 °F /  12.7 °C 29.87in /  1011.4hPa SW 2mph /  3.2km/h 4mph /  6.4km/h 99% 0.00in /  0mm 0 W/m2
00:30 55 °F /  12.8 °C 54.8 °F /  12.7 °C 29.87in /  1011.4hPa West 1mph /  1.6km/h 4mph /  6.4km/h 99% 0.00in /  0mm 0 W/m2
00:40 55 °F /  12.8 °C 54.7 °F /  12.6 °C 29.87in /  1011.4hPa WNW 1mph /  1.6km/h 4mph /  6.4km/h 99% 0.00in /  0mm 0 W/m2
00:50 54.9 °F /  12.7 °C 54.6 °F /  12.6 °C 29.87in /  1011.4hPa West 2mph /  3.2km/h 3mph /  4.8km/h 99% 0.00in /  0mm 0 W/m2
01:00 54.9 °F /  12.7 °C 54.6 °F /  12.6 °C 29.88in /  1011.7hPa WSW 3mph /  4.8km/h 7mph /  11.3km/h 99% 0.00in /  0mm 0 W/m2
01:10 55 °F /  12.8 °C 53.9 °F /  12.2 °C 29.87in /  1011.4hPa WNW 3mph /  4.8km/h 9mph /  14.5km/h 96% 0.00in /  0mm 0 W/m2
01:20 54.9 °F /  12.7 °C 53.7 °F /  12.1 °C 29.87in /  1011.4hPa West 1mph /  1.6km/h 6mph /  9.7km/h 96% 0.00in /  0mm 0 W/m2
01:30 54.7 °F /  12.6 °C 53.6 °F /  12 °C 29.87in /  1011.4hPa WNW 2mph /  3.2km/h 5mph /  8km/h 96% 0.00in /  0mm 0 W/m2
01:40 54.7 °F /  12.6 °C 53.3 °F /  11.8 °C 29.87in /  1011.4hPa West 2mph /  3.2km/h 6mph /  9.7km/h 95% 0.00in /  0mm 0 W/m2
01:50 54.5 °F /  12.5 °C 52.8 °F /  11.6 °C 29.87in /  1011.4hPa WSW 2mph /  3.2km/h 7mph /  11.3km/h 94% 0.00in /  0mm 0 W/m2
02:00 54.3 °F /  12.4 °C 52.9 °F /  11.6 °C 29.88in /  1011.7hPa WSW 2mph /  3.2km/h 6mph /  9.7km/h 95% 0.00in /  0mm 0 W/m2
02:10 54.3 °F /  12.4 °C 52.6 °F /  11.4 °C 29.87in /  1011.4hPa WSW 3mph /  4.8km/h 5mph /  8km/h 94% 0.00in /  0mm 0 W/m2
02:20 54 °F /  12.2 °C 51.7 °F /  10.9 °C 29.88in /  1011.7hPa West 7mph /  11.3km/h 13mph /  20.9km/h 92% 0.00in /  0mm 0 W/m2
02:30 54.1 °F /  12.3 °C 51.6 °F /  10.9 °C 29.89in /  1012.1hPa West 3mph /  4.8km/h 13mph /  20.9km/h 91% 0.00in /  0mm 0 W/m2
02:40 54 °F /  12.2 °C 51.1 °F /  10.6 °C 29.89in /  1012.1hPa West 5mph /  8km/h 9mph /  14.5km/h 90% 0.00in /  0mm 0 W/m2
02:50 53.8 °F /  12.1 °C 50.9 °F /  10.5 °C 29.89in /  1012.1hPa WSW 6mph /  9.7km/h 9mph /  14.5km/h 90% 0.00in /  0mm 0 W/m2
03:00 53.7 °F /  12.1 °C 50.5 °F /  10.3 °C 29.90in /  1012.4hPa WSW 6mph /  9.7km/h 10mph /  16.1km/h 89% 0.00in /  0mm 0 W/m2
03:10 53.6 °F /  12 °C 50.4 °F /  10.2 °C 29.90in /  1012.4hPa WSW 3mph /  4.8km/h 9mph /  14.5km/h 89% 0.00in /  0mm 0 W/m2
03:20 53.5 °F /  11.9 °C 50.1 °F /  10.1 °C 29.90in /  1012.4hPa WSW 3mph /  4.8km/h 8mph /  12.9km/h 88% 0.00in /  0mm 0 W/m2
03:30 53.4 °F /  11.9 °C 50 °F /  10 °C 29.90in /  1012.4hPa West 1mph /  1.6km/h 7mph /  11.3km/h 88% 0.00in /  0mm 0 W/m2
03:40 53.2 °F /  11.8 °C 50.1 °F /  10.1 °C 29.90in /  1012.4hPa WNW 1mph /  1.6km/h 3mph /  4.8km/h 89% 0.00in /  0mm 0 W/m2
03:50 52.9 °F /  11.6 °C 50 °F /  10 °C 29.90in /  1012.4hPa WSW 2mph /  3.2km/h 5mph /  8km/h 90% 0.00in /  0mm 0 W/m2
04:00 52.6 °F /  11.4 °C 49.8 °F /  9.9 °C 29.90in /  1012.4hPa WSW 3mph /  4.8km/h 7mph /  11.3km/h 90% 0.00in /  0mm 0 W/m2
Knjazevac, Serbia
Compliments of Weather Underground - 2 mb